createdAt,value
2023-04-13T00:01:00.555Z,5.90
2023-04-13T00:03:26.777Z,6.63
2023-04-13T00:05:53.177Z,5.70
2023-04-13T00:08:22.082Z,5.85
2023-04-13T00:10:48.178Z,6.85
2023-04-13T00:13:14.139Z,6.35
2023-04-13T00:15:41.226Z,6.50
2023-04-13T00:18:08.221Z,6.80
2023-04-13T00:20:34.169Z,7.43
2023-04-13T00:23:00.080Z,7.82
2023-04-13T00:25:25.809Z,6.63
2023-04-13T00:27:54.205Z,7.05
2023-04-13T00:30:20.660Z,7.22
2023-04-13T00:32:46.493Z,6.38
2023-04-13T00:35:15.034Z,6.93
2023-04-13T00:37:42.463Z,7.55
2023-04-13T00:40:08.888Z,7.97
2023-04-13T00:42:34.898Z,8.13
2023-04-13T00:45:00.632Z,7.05
2023-04-13T00:47:33.371Z,8.80
2023-04-13T00:50:03.228Z,7.45
2023-04-13T00:52:29.130Z,7.60
2023-04-13T00:54:56.859Z,6.82
2023-04-13T00:57:23.467Z,7.68
2023-04-13T00:59:49.623Z,8.32
2023-04-13T01:02:18.424Z,8.55
2023-04-13T01:04:45.019Z,8.10
2023-04-13T01:07:29.590Z,7.88
2023-04-13T01:10:01.197Z,7.82
2023-04-13T01:12:33.683Z,8.38
2023-04-13T01:15:10.752Z,6.68
2023-04-13T01:17:37.590Z,7.35
2023-04-13T01:20:11.351Z,5.68
2023-04-13T01:22:44.909Z,5.60
2023-04-13T01:25:17.686Z,5.30
2023-04-13T01:27:51.605Z,6.45
2023-04-13T01:30:27.537Z,6.75
2023-04-13T01:32:53.698Z,7.63
2023-04-13T01:35:22.929Z,7.13
2023-04-13T01:37:51.796Z,7.60
2023-04-13T01:40:20.716Z,8.27
2023-04-13T01:42:46.652Z,7.07
2023-04-13T01:45:15.257Z,6.78
2023-04-13T01:47:44.099Z,7.93
2023-04-13T01:50:29.097Z,6.57
2023-04-13T01:52:57.478Z,7.07
2023-04-13T01:55:23.626Z,6.47
2023-04-13T01:57:54.428Z,7.65
2023-04-13T02:02:46.126Z,5.88
2023-04-13T02:05:11.971Z,5.45
2023-04-13T02:07:39.221Z,6.68
2023-04-13T02:10:05.793Z,5.43
2023-04-13T02:12:32.707Z,5.35
2023-04-13T02:15:00.421Z,4.70
2023-04-13T02:17:29.263Z,5.07
2023-04-13T02:19:56.234Z,5.13
2023-04-13T02:22:22.882Z,4.75
2023-04-13T02:24:49.512Z,4.40
2023-04-13T02:27:15.730Z,4.43
2023-04-13T02:29:42.231Z,5.00
2023-04-13T02:32:08.117Z,4.25
2023-04-13T02:34:33.987Z,4.95
2023-04-13T02:37:00.253Z,6.03
2023-04-13T02:39:25.976Z,4.10
2023-04-13T02:41:51.788Z,4.70
2023-04-13T02:44:17.608Z,4.43
2023-04-13T02:46:43.318Z,4.20
2023-04-13T02:49:09.047Z,4.28
2023-04-13T02:51:34.882Z,4.57
2023-04-13T02:54:02.091Z,3.83
2023-04-13T02:56:30.235Z,4.35
2023-04-13T02:58:56.777Z,4.13
2023-04-13T03:01:24.318Z,3.97
2023-04-13T03:03:50.384Z,4.20
2023-04-13T03:06:17.187Z,4.45
2023-04-13T03:08:42.889Z,4.05
2023-04-13T03:11:11.311Z,8.40
2023-04-13T03:13:37.151Z,4.63
2023-04-13T03:16:04.112Z,4.53
2023-04-13T03:18:30.858Z,4.35
2023-04-13T03:20:56.576Z,4.80
2023-04-13T03:23:22.400Z,5.65
2023-04-13T03:25:48.155Z,6.47
2023-04-13T03:28:14.024Z,4.82
2023-04-13T03:30:39.735Z,4.40
2023-04-13T03:33:05.830Z,4.25
2023-04-13T03:35:31.576Z,4.65
2023-04-13T03:37:57.297Z,5.05
2023-04-13T03:40:23.035Z,4.60
2023-04-13T03:42:48.779Z,4.32
2023-04-13T03:45:14.776Z,4.10
2023-04-13T03:47:40.774Z,4.47
2023-04-13T03:50:07.049Z,5.32
2023-04-13T03:52:32.849Z,5.13
2023-04-13T03:54:58.694Z,5.93
2023-04-13T03:57:24.560Z,5.53
2023-04-13T03:59:50.452Z,5.38
2023-04-13T04:02:16.324Z,5.05
2023-04-13T04:04:42.419Z,4.25
2023-04-13T04:07:08.219Z,5.10
2023-04-13T04:09:33.944Z,5.07
2023-04-13T04:11:59.715Z,5.45
2023-04-13T04:14:25.460Z,5.57
2023-04-13T04:16:52.021Z,4.78
2023-04-13T04:19:17.723Z,4.93
2023-04-13T04:21:44.144Z,5.95
2023-04-13T04:24:21.942Z,7.85
2023-04-13T04:26:54.383Z,6.53
2023-04-13T04:29:33.272Z,6.82
2023-04-13T04:31:59.864Z,7.22
2023-04-13T04:34:25.628Z,6.95
2023-04-13T04:36:52.002Z,7.68
2023-04-13T04:39:21.590Z,7.10
2023-04-13T04:41:53.494Z,7.65
2023-04-13T04:44:30.066Z,8.57
2023-04-13T04:46:56.306Z,8.95
2023-04-13T04:49:22.268Z,9.65
2023-04-13T04:51:48.743Z,8.43
2023-04-13T04:54:17.742Z,8.60
2023-04-13T04:56:44.848Z,7.70
2023-04-13T04:59:10.839Z,7.00
2023-04-13T05:01:38.154Z,7.38
2023-04-13T05:04:04.189Z,7.68
2023-04-13T05:06:33.112Z,7.20
2023-04-13T05:08:59.509Z,7.13
2023-04-13T05:11:25.959Z,6.38
2023-04-13T05:13:52.483Z,7.03
2023-04-13T05:16:22.077Z,6.68
2023-04-13T05:18:48.444Z,7.07
2023-04-13T05:21:15.295Z,6.70
2023-04-13T05:23:42.632Z,6.72
2023-04-13T05:26:10.689Z,7.07
2023-04-13T05:28:37.157Z,7.10
2023-04-13T05:31:03.429Z,8.30
2023-04-13T05:33:29.735Z,7.18
2023-04-13T05:35:56.371Z,7.13
2023-04-13T05:38:22.620Z,8.80
2023-04-13T05:40:48.412Z,7.05
2023-04-13T05:43:15.550Z,7.97
2023-04-13T05:45:41.515Z,8.30
2023-04-13T05:48:07.362Z,7.40
2023-04-13T05:50:33.372Z,6.72
2023-04-13T05:52:59.145Z,6.25
2023-04-13T05:55:25.671Z,7.13
2023-04-13T05:57:52.294Z,6.35
2023-04-13T06:00:19.749Z,7.20
2023-04-13T06:02:48.607Z,5.80
2023-04-13T06:05:14.973Z,4.68
2023-04-13T06:07:44.205Z,5.50
2023-04-13T06:10:11.295Z,5.30
2023-04-13T06:12:37.361Z,5.50
2023-04-13T06:15:03.775Z,3.20
2023-04-13T06:17:31.144Z,2.90
2023-04-13T06:19:57.145Z,2.45
2023-04-13T06:22:23.152Z,2.90
2023-04-13T06:24:50.097Z,2.45
2023-04-13T06:27:15.875Z,3.22
2023-04-13T06:29:42.573Z,3.08
2023-04-13T06:32:08.808Z,3.45
2023-04-13T06:34:35.682Z,2.13
2023-04-13T06:37:02.603Z,2.22
2023-04-13T06:39:29.078Z,2.13
2023-04-13T06:41:56.991Z,2.30
2023-04-13T06:44:26.256Z,1.98
2023-04-13T06:46:52.654Z,2.05
2023-04-13T06:49:18.617Z,2.53
2023-04-13T06:51:44.794Z,1.55
2023-04-13T06:54:12.070Z,1.50
2023-04-13T06:56:38.469Z,1.90
2023-04-13T06:59:04.783Z,2.42
2023-04-13T07:01:32.178Z,1.38
2023-04-13T07:03:58.406Z,2.67
2023-04-13T07:06:24.395Z,2.58
2023-04-13T07:08:50.587Z,1.45
2023-04-13T07:11:16.515Z,1.52
2023-04-13T07:13:43.815Z,1.83
2023-04-13T07:16:25.004Z,2.58
2023-04-13T07:18:53.642Z,1.80
2023-04-13T07:21:20.236Z,1.95
2023-04-13T07:23:47.043Z,2.63
2023-04-13T07:26:14.654Z,2.15
2023-04-13T07:28:41.301Z,2.80
2023-04-13T07:31:09.198Z,2.85
2023-04-13T07:33:35.202Z,1.85
2023-04-13T07:36:01.277Z,2.33
2023-04-13T07:38:27.576Z,2.03
2023-04-13T07:40:53.385Z,1.63
2023-04-13T07:43:20.523Z,2.00
2023-04-13T07:45:50.873Z,2.00
2023-04-13T07:48:17.052Z,1.70
2023-04-13T07:50:43.316Z,2.03
2023-04-13T11:59:47.909Z,0.50
2023-04-13T12:13:46.406Z,1.05
2023-04-13T12:19:46.723Z,0.60
2023-04-13T12:25:02.238Z,1.17
2023-04-13T17:11:13.545Z,0.98
2023-04-13T17:13:39.695Z,1.00
2023-04-13T17:16:09.856Z,1.20
2023-04-13T17:18:36.424Z,1.50
2023-04-13T17:21:02.797Z,1.00
2023-04-13T17:23:30.538Z,1.00
2023-04-13T17:28:37.476Z,1.15
2023-04-13T17:31:13.320Z,1.05
2023-04-13T17:33:50.910Z,1.10
2023-04-13T17:36:19.669Z,1.15
2023-04-13T17:38:48.215Z,1.17
2023-04-13T17:41:15.184Z,1.45
2023-04-13T17:43:42.213Z,1.38
2023-04-13T17:46:08.528Z,1.15
2023-04-13T17:48:36.635Z,0.88
2023-04-13T17:51:17.590Z,1.15
2023-04-13T17:53:45.311Z,1.25
2023-04-13T17:56:15.409Z,1.52
2023-04-13T17:58:41.933Z,1.63
2023-04-13T18:01:18.653Z,1.30
2023-04-13T18:03:45.054Z,1.55
2023-04-13T18:06:14.345Z,1.30
2023-04-13T18:08:49.366Z,1.33
2023-04-13T18:11:15.614Z,1.35
2023-04-13T18:16:23.279Z,0.85
2023-04-13T18:18:53.218Z,1.48
2023-04-13T18:21:26.911Z,2.10
2023-04-13T18:23:53.591Z,1.80
2023-04-13T18:26:27.607Z,1.40
2023-04-13T18:28:54.085Z,1.48
2023-04-13T18:34:17.735Z,1.48
2023-04-13T18:36:47.168Z,3.97
2023-04-13T18:39:15.903Z,4.13
2023-04-13T18:41:42.700Z,3.80
2023-04-13T18:44:09.180Z,1.58
2023-04-13T18:46:35.452Z,0.95
2023-04-13T18:49:01.858Z,1.42
2023-04-13T18:51:30.650Z,1.80
2023-04-13T18:53:57.085Z,1.40
2023-04-13T18:56:30.657Z,1.90
2023-04-13T18:58:56.810Z,2.83
2023-04-13T19:01:29.229Z,2.72
2023-04-13T19:03:56.441Z,2.53
2023-04-13T19:09:04.750Z,3.60
2023-04-13T19:11:47.982Z,2.90
2023-04-13T19:14:18.573Z,2.20
2023-04-13T19:16:46.298Z,2.85
2023-04-13T19:19:16.580Z,2.20
2023-04-13T19:21:42.826Z,2.67
2023-04-13T19:24:13.447Z,2.65
2023-04-13T19:26:42.785Z,2.20
2023-04-13T19:29:13.155Z,2.42
2023-04-13T19:32:17.186Z,2.13
2023-04-13T19:34:43.648Z,2.90
2023-04-13T19:37:10.125Z,2.88
2023-04-13T19:39:37.910Z,1.92
2023-04-13T19:42:03.989Z,2.15
2023-04-13T19:44:29.922Z,1.58
2023-04-13T19:46:56.120Z,1.95
2023-04-13T19:49:22.499Z,2.47
2023-04-13T19:51:48.597Z,2.92
2023-04-13T19:54:14.982Z,2.40
2023-04-13T19:56:43.599Z,1.95
2023-04-13T19:59:11.813Z,2.60
2023-04-13T20:01:46.835Z,2.03
2023-04-13T20:04:14.972Z,2.80
2023-04-13T20:06:41.294Z,2.53
2023-04-13T20:09:12.214Z,2.33
2023-04-13T20:11:39.333Z,1.92
2023-04-13T20:14:05.384Z,2.60
2023-04-13T20:16:31.865Z,2.72
2023-04-13T20:18:58.082Z,3.20
2023-04-13T20:21:24.593Z,2.92
2023-04-13T20:23:52.428Z,4.50
2023-04-13T20:26:44.635Z,4.05
2023-04-13T20:29:10.645Z,4.07
2023-04-13T20:32:30.195Z,4.38
2023-04-13T20:35:03.153Z,6.07
2023-04-13T20:37:29.025Z,5.53
2023-04-13T20:39:55.770Z,4.53
2023-04-13T20:42:22.100Z,4.50
2023-04-13T20:44:48.916Z,4.18
2023-04-13T20:47:16.032Z,3.42
2023-04-13T20:49:46.447Z,6.43
2023-04-13T20:52:17.596Z,5.68
2023-04-13T20:54:43.576Z,6.95
2023-04-13T20:57:10.576Z,5.60
2023-04-13T20:59:39.680Z,5.22
2023-04-13T21:02:37.569Z,5.40
2023-04-13T21:05:04.518Z,5.45
2023-04-13T21:07:32.827Z,4.95
2023-04-13T21:09:58.720Z,4.50
2023-04-13T21:12:26.460Z,4.00
2023-04-13T21:14:52.882Z,4.65
2023-04-13T21:17:19.338Z,4.00
2023-04-13T21:19:45.183Z,3.35
2023-04-13T21:22:11.681Z,4.30
2023-04-13T21:24:37.669Z,6.68
2023-04-13T21:27:03.691Z,6.05
2023-04-13T21:29:30.489Z,3.60
2023-04-13T21:31:56.917Z,3.25
2023-04-13T21:34:26.476Z,4.00
2023-04-13T21:36:53.090Z,3.72
2023-04-13T21:39:20.215Z,3.47
2023-04-13T21:41:47.325Z,3.85
2023-04-13T21:44:28.374Z,3.58
2023-04-13T21:46:58.917Z,3.20
2023-04-13T21:49:25.742Z,2.88
2023-04-13T21:51:52.105Z,2.80
2023-04-13T21:54:18.030Z,2.92
2023-04-13T21:56:44.751Z,3.13
2023-04-13T21:59:11.442Z,2.95
2023-04-13T22:01:56.326Z,3.58
2023-04-13T22:04:22.753Z,3.05
2023-04-13T22:06:49.351Z,2.92
2023-04-13T22:09:15.949Z,2.63
2023-04-13T22:11:42.285Z,3.25
2023-04-13T22:14:08.525Z,3.30
2023-04-13T22:16:34.595Z,5.35
2023-04-13T22:19:00.781Z,3.85
2023-04-13T22:21:27.091Z,3.63
2023-04-13T22:23:52.818Z,4.03
2023-04-13T22:26:18.548Z,3.78
2023-04-13T22:28:44.373Z,4.15
2023-04-13T22:31:11.295Z,3.35
2023-04-13T22:33:37.065Z,3.33
2023-04-13T22:36:03.574Z,3.33
2023-04-13T22:38:29.386Z,4.15
2023-04-13T22:40:55.267Z,3.78
2023-04-13T22:43:20.995Z,4.18
2023-04-13T22:45:46.728Z,3.50
2023-04-13T22:48:12.474Z,3.22
2023-04-13T22:50:38.276Z,3.20
2023-04-13T22:53:04.280Z,3.20
2023-04-13T22:55:30.166Z,3.65
2023-04-13T22:57:55.966Z,3.35
2023-04-13T23:00:21.696Z,2.60
2023-04-13T23:02:49.629Z,3.33
2023-04-13T23:05:15.814Z,2.35
2023-04-13T23:07:41.542Z,2.10
2023-04-13T23:10:07.922Z,2.25
2023-04-13T23:12:33.643Z,1.90
2023-04-13T23:14:59.370Z,1.35
2023-04-13T23:17:25.290Z,1.40
2023-04-13T23:19:54.904Z,1.50
2023-04-13T23:22:20.987Z,2.60
2023-04-13T23:24:46.986Z,1.50
2023-04-13T23:27:12.715Z,1.42
2023-04-13T23:29:41.602Z,1.52
2023-04-13T23:32:07.415Z,1.73
2023-04-13T23:34:33.198Z,1.60
2023-04-13T23:36:58.941Z,1.80
2023-04-13T23:39:24.679Z,2.28
2023-04-13T23:41:50.413Z,1.85
2023-04-13T23:44:16.143Z,1.80
2023-04-13T23:46:42.809Z,2.38
2023-04-13T23:49:08.519Z,2.72
2023-04-13T23:51:34.221Z,2.45
2023-04-13T23:53:59.975Z,2.05
2023-04-13T23:56:25.694Z,3.60
2023-04-13T23:58:51.405Z,2.22
